createdAt,value
2022-10-17T00:00:09.132Z,1.27
2022-10-17T00:02:36.716Z,1.40
2022-10-17T00:05:04.193Z,1.15
2022-10-17T00:07:31.645Z,0.85
2022-10-17T00:09:58.956Z,1.63
2022-10-17T00:12:26.532Z,1.40
2022-10-17T00:14:54.926Z,1.42
2022-10-17T00:17:22.515Z,1.35
2022-10-17T00:19:49.900Z,2.75
2022-10-17T00:22:17.219Z,1.10
2022-10-17T00:24:46.962Z,1.98
2022-10-17T00:27:14.373Z,1.95
2022-10-17T00:29:41.721Z,1.23
2022-10-17T00:32:34.470Z,1.23
2022-10-17T00:35:02.070Z,1.67
2022-10-17T00:37:34.074Z,2.35
2022-10-17T00:40:01.879Z,0.93
2022-10-17T00:42:29.310Z,2.38
2022-10-17T00:45:22.099Z,1.08
2022-10-17T00:47:55.866Z,2.35
2022-10-17T00:50:37.680Z,2.35
2022-10-17T00:53:24.210Z,2.47
2022-10-17T00:56:19.095Z,5.05
2022-10-17T00:59:08.050Z,3.08
2022-10-17T01:06:22.416Z,1.55
2022-10-17T01:08:56.018Z,0.75
2022-10-17T01:11:39.785Z,0.85
2022-10-17T01:14:36.631Z,3.50
2022-10-17T01:17:07.756Z,3.47
2022-10-17T01:23:40.918Z,3.33
2022-10-17T01:26:38.037Z,2.30
2022-10-17T01:29:35.532Z,2.40
2022-10-17T01:32:24.485Z,1.95
2022-10-17T01:35:04.527Z,3.92
2022-10-17T01:37:42.177Z,2.38
2022-10-17T01:40:25.953Z,2.50
2022-10-17T01:43:13.968Z,5.47
2022-10-17T01:45:59.109Z,3.60
2022-10-17T01:48:34.523Z,2.38
2022-10-17T01:51:55.674Z,2.90
2022-10-17T01:54:30.830Z,3.55
2022-10-17T01:57:16.149Z,3.80
2022-10-17T01:59:53.603Z,4.38
2022-10-17T02:02:49.866Z,3.63
2022-10-17T02:05:25.833Z,5.80
2022-10-17T02:07:53.169Z,5.38
2022-10-17T02:10:46.716Z,4.30
2022-10-17T02:13:45.256Z,4.25
2022-10-17T02:16:21.572Z,5.00
2022-10-17T02:18:57.672Z,6.85
2022-10-17T02:21:38.725Z,2.53
2022-10-17T02:24:18.077Z,3.75
2022-10-17T02:26:53.118Z,3.42
2022-10-17T02:29:25.802Z,2.53
2022-10-17T02:32:12.200Z,3.40
2022-10-17T02:34:47.769Z,2.28
2022-10-17T02:37:19.022Z,4.18
2022-10-17T02:39:47.755Z,2.65
2022-10-17T02:42:16.249Z,2.30
2022-10-17T02:44:45.962Z,3.58
2022-10-17T02:47:41.408Z,8.50
2022-10-17T02:50:09.071Z,3.92
2022-10-17T02:53:01.462Z,5.35
2022-10-17T02:55:39.303Z,8.88
2022-10-17T02:58:16.896Z,5.97
2022-10-17T03:00:45.026Z,5.72
2022-10-17T03:03:28.362Z,9.55
2022-10-17T03:06:00.089Z,3.45
2022-10-17T03:08:27.449Z,1.77
2022-10-17T03:10:56.335Z,2.83
2022-10-17T03:13:24.387Z,3.95
2022-10-17T03:15:51.536Z,6.88
2022-10-17T03:18:18.841Z,3.08
2022-10-17T03:20:48.266Z,4.80
2022-10-17T03:23:15.906Z,2.03
2022-10-17T03:25:43.312Z,7.88
2022-10-17T03:28:12.464Z,8.07
2022-10-17T03:30:39.975Z,3.00
2022-10-17T03:33:07.319Z,8.88
2022-10-17T03:35:34.522Z,4.20
2022-10-17T03:38:02.139Z,3.38
2022-10-17T03:40:30.286Z,5.68
2022-10-17T03:42:57.635Z,2.78
2022-10-17T03:45:24.872Z,6.50
2022-10-17T03:47:53.609Z,6.03
2022-10-17T03:50:20.806Z,5.57
2022-10-17T03:52:49.206Z,7.68
2022-10-17T03:55:17.362Z,5.25
2022-10-17T03:57:45.580Z,5.43
2022-10-17T04:00:15.050Z,3.63
2022-10-17T04:02:42.513Z,3.95
2022-10-17T04:05:15.349Z,9.65
2022-10-17T04:07:42.816Z,6.72
2022-10-17T04:10:11.181Z,8.27
2022-10-17T04:12:38.581Z,4.82
2022-10-17T04:15:06.852Z,3.58
2022-10-17T04:17:37.347Z,2.88
2022-10-17T04:20:07.820Z,4.50
2022-10-17T04:22:35.219Z,2.00
2022-10-17T04:25:03.452Z,5.78
2022-10-17T04:27:36.431Z,7.63
2022-10-17T04:30:03.882Z,3.40
2022-10-17T04:32:38.434Z,3.75
2022-10-17T04:35:13.204Z,3.78
2022-10-17T04:37:44.953Z,2.47
2022-10-17T04:40:17.969Z,3.35
2022-10-17T04:42:45.856Z,2.90
2022-10-17T04:45:16.750Z,3.13
2022-10-17T04:47:44.486Z,3.47
2022-10-17T04:50:12.270Z,1.20
2022-10-17T04:52:40.851Z,1.23
2022-10-17T04:55:09.510Z,0.85
2022-10-17T04:57:38.129Z,2.28
2022-10-17T05:00:13.140Z,0.85
2022-10-17T05:02:59.368Z,1.40
2022-10-17T05:05:27.914Z,4.88
2022-10-17T05:07:56.427Z,3.15
2022-10-17T05:10:26.583Z,6.90
2022-10-17T05:12:54.824Z,6.82
2022-10-17T05:15:24.692Z,6.50
2022-10-17T05:17:57.927Z,10.43
2022-10-17T05:20:27.232Z,4.68
2022-10-17T05:22:54.586Z,4.30
2022-10-17T05:25:22.202Z,3.38
2022-10-17T05:27:50.180Z,6.07
2022-10-17T05:30:18.182Z,6.72
2022-10-17T05:32:45.704Z,5.75
2022-10-17T05:35:12.847Z,4.43
2022-10-17T05:37:40.675Z,4.38
2022-10-17T05:40:08.867Z,5.97
2022-10-17T05:42:36.142Z,2.75
2022-10-17T05:45:04.296Z,9.13
2022-10-17T05:47:32.568Z,5.82
2022-10-17T05:50:00.112Z,5.75
2022-10-17T05:52:33.779Z,4.10
2022-10-17T05:55:11.476Z,5.57
2022-10-17T05:57:39.776Z,4.55
2022-10-17T06:00:11.613Z,4.88
2022-10-17T06:02:41.688Z,4.50
2022-10-17T06:05:10.579Z,3.55
2022-10-17T06:07:37.877Z,4.82
2022-10-17T06:10:06.991Z,5.07
2022-10-17T06:12:34.525Z,4.78
2022-10-17T06:15:01.978Z,4.13
2022-10-17T06:17:30.522Z,2.90
2022-10-17T06:19:58.459Z,2.58
2022-10-17T06:22:25.650Z,2.30
2022-10-17T06:24:53.836Z,1.58
2022-10-17T06:27:21.632Z,1.02
2022-10-17T06:29:49.163Z,0.90
2022-10-17T06:32:17.765Z,2.35
2022-10-17T06:34:47.001Z,1.92
2022-10-17T06:37:15.389Z,1.75
2022-10-17T06:39:43.759Z,1.23
2022-10-17T06:42:13.540Z,1.92
2022-10-17T06:45:04.163Z,3.20
2022-10-17T06:47:37.681Z,1.48
2022-10-17T06:50:22.734Z,1.38
2022-10-17T06:53:18.767Z,2.38
2022-10-17T06:56:05.291Z,0.65
2022-10-17T06:59:49.141Z,1.23
2022-10-17T07:02:24.280Z,1.92
2022-10-17T07:04:52.882Z,0.70
2022-10-17T07:07:20.006Z,0.65
2022-10-17T07:09:47.247Z,1.65
2022-10-17T07:12:15.916Z,1.75
2022-10-17T07:14:47.392Z,0.80
2022-10-17T07:17:14.755Z,0.90
2022-10-17T07:19:43.560Z,1.10
2022-10-17T07:22:12.273Z,1.33
2022-10-17T07:24:42.575Z,1.60
2022-10-17T07:27:28.506Z,0.93
2022-10-17T07:29:55.965Z,0.93
2022-10-17T07:32:55.102Z,1.30
2022-10-17T07:35:22.690Z,1.40
2022-10-17T07:37:50.324Z,1.70
2022-10-17T07:40:19.938Z,1.58
2022-10-17T07:42:47.569Z,2.15
2022-10-17T07:45:15.802Z,0.85
2022-10-17T07:47:43.605Z,0.60
2022-10-17T07:50:13.742Z,1.20
2022-10-17T07:52:43.303Z,0.85
2022-10-17T07:55:10.752Z,1.65
2022-10-17T07:57:37.967Z,1.65
2022-10-17T08:00:05.855Z,1.73
2022-10-17T08:02:39.730Z,1.15
2022-10-17T08:05:07.535Z,2.22
2022-10-17T08:07:34.866Z,2.53
2022-10-17T08:10:02.307Z,0.82
2022-10-17T08:12:32.814Z,1.90
2022-10-17T08:15:04.603Z,1.80
2022-10-17T08:17:31.771Z,2.90
2022-10-17T08:19:58.916Z,5.30
2022-10-17T08:22:26.671Z,2.78
2022-10-17T08:24:54.207Z,1.33
2022-10-17T08:27:24.879Z,2.95
2022-10-17T08:29:53.631Z,1.13
2022-10-17T08:32:22.389Z,2.22
2022-10-17T08:34:49.572Z,0.73
2022-10-17T08:37:17.188Z,3.60
2022-10-17T08:39:44.993Z,0.80
2022-10-17T08:42:32.466Z,1.13
2022-10-17T08:45:46.509Z,1.45
2022-10-17T08:51:22.875Z,2.83
2022-10-17T08:54:01.454Z,3.47
2022-10-17T08:56:50.014Z,4.20
2022-10-17T08:59:26.477Z,4.03
2022-10-17T09:02:12.297Z,6.10
2022-10-17T09:05:08.194Z,2.60
2022-10-17T09:08:04.480Z,4.57
2022-10-17T09:10:31.629Z,7.28
2022-10-17T09:13:23.673Z,9.20
2022-10-17T09:16:01.382Z,4.40
2022-10-17T09:18:33.201Z,2.13
2022-10-17T09:21:21.443Z,5.72
2022-10-17T09:24:03.793Z,3.28
2022-10-17T09:26:39.591Z,2.55
2022-10-17T09:29:25.711Z,4.90
2022-10-17T09:32:03.627Z,6.72
2022-10-17T09:34:33.354Z,7.15
2022-10-17T09:37:02.408Z,4.03
2022-10-17T09:39:33.258Z,3.95
2022-10-17T09:42:01.820Z,3.20
2022-10-17T09:45:01.574Z,7.65
2022-10-17T09:47:52.287Z,6.05
2022-10-17T09:50:33.894Z,7.75
2022-10-17T09:53:29.268Z,2.95
2022-10-17T09:56:02.880Z,5.47
2022-10-17T09:58:45.854Z,6.43
2022-10-17T10:01:31.299Z,6.18
2022-10-17T10:04:30.355Z,10.07
2022-10-17T10:07:10.565Z,9.18
2022-10-17T10:09:40.183Z,7.65
2022-10-17T10:12:18.328Z,4.15
2022-10-17T10:14:47.392Z,5.07
2022-10-17T10:17:36.147Z,8.32
2022-10-17T10:20:25.398Z,5.68
2022-10-17T10:23:17.278Z,5.50
2022-10-17T10:25:58.281Z,8.88
2022-10-17T10:28:35.361Z,3.55
2022-10-17T10:31:08.661Z,4.55
2022-10-17T10:33:43.526Z,7.43
2022-10-17T10:36:13.188Z,2.85
2022-10-17T10:38:42.689Z,8.93
2022-10-17T10:41:12.076Z,4.32
2022-10-17T10:43:46.121Z,3.28
2022-10-17T10:46:27.387Z,5.90
2022-10-17T10:49:03.386Z,8.13
2022-10-17T10:51:33.461Z,7.93
2022-10-17T10:54:28.779Z,6.50
2022-10-17T10:57:00.337Z,5.75
2022-10-17T10:59:36.941Z,5.25
2022-10-17T11:02:22.642Z,3.80
2022-10-17T11:05:06.733Z,4.65
2022-10-17T11:07:50.370Z,4.15
2022-10-17T11:10:39.446Z,2.67
2022-10-17T11:13:18.377Z,4.43
2022-10-17T11:15:45.891Z,6.78
2022-10-17T11:18:44.097Z,10.10
2022-10-17T11:21:19.515Z,5.55
2022-10-17T11:23:56.876Z,4.38
2022-10-17T11:26:32.292Z,3.40
2022-10-17T11:29:04.072Z,7.25
2022-10-17T11:31:35.212Z,2.78
2022-10-17T11:34:29.706Z,4.78
2022-10-17T11:37:05.353Z,2.25
2022-10-17T11:39:49.452Z,6.25
2022-10-17T11:42:33.060Z,5.55
2022-10-17T11:45:06.505Z,2.72
2022-10-17T11:47:59.064Z,4.60
2022-10-17T11:53:38.618Z,4.28
2022-10-17T11:56:06.875Z,2.53
2022-10-17T11:58:46.325Z,3.97
2022-10-17T12:01:36.594Z,3.17
2022-10-17T12:04:17.925Z,3.97
2022-10-17T12:07:01.766Z,4.88
2022-10-17T12:09:51.158Z,1.73
2022-10-17T12:12:44.001Z,1.30
2022-10-17T12:15:14.207Z,3.28
2022-10-17T12:17:45.124Z,1.33
2022-10-17T12:20:24.199Z,2.03
2022-10-17T12:23:19.369Z,4.07
2022-10-17T12:26:04.917Z,1.77
2022-10-17T12:28:42.919Z,3.25
2022-10-17T12:31:16.447Z,1.30
2022-10-17T12:33:46.749Z,2.15
2022-10-17T12:36:22.941Z,2.15
2022-10-17T12:38:52.674Z,1.73
2022-10-17T12:41:39.734Z,1.17
2022-10-17T12:44:13.792Z,0.80
2022-10-17T12:46:41.531Z,0.77
2022-10-17T12:49:43.199Z,1.95
2022-10-17T12:52:22.081Z,3.30
2022-10-17T12:55:14.699Z,0.90
2022-10-17T12:58:03.049Z,1.58
2022-10-17T13:00:43.856Z,2.05
2022-10-17T13:03:23.512Z,1.80
2022-10-17T13:06:00.949Z,1.33
2022-10-17T13:08:39.102Z,1.23
2022-10-17T13:11:58.691Z,2.65
2022-10-17T13:14:27.108Z,1.02
2022-10-17T13:17:07.955Z,2.55
2022-10-17T13:19:44.837Z,1.63
2022-10-17T13:22:32.771Z,3.53
2022-10-17T13:25:19.238Z,2.42
2022-10-17T13:27:49.716Z,1.70
2022-10-17T13:30:54.723Z,3.70
2022-10-17T13:33:35.413Z,3.00
2022-10-17T13:36:04.958Z,2.28
2022-10-17T13:38:35.822Z,2.15
2022-10-17T13:41:34.447Z,1.20
2022-10-17T13:43:59.681Z,1.92
2022-10-17T13:46:39.243Z,6.63
2022-10-17T13:49:23.305Z,2.58
2022-10-17T13:51:55.482Z,2.38
2022-10-17T13:54:43.382Z,1.73
2022-10-17T13:57:22.066Z,2.60
2022-10-17T13:59:55.118Z,1.92
2022-10-17T14:09:06.639Z,1.35
2022-10-17T14:11:40.641Z,1.95
2022-10-17T14:14:19.802Z,0.90
2022-10-17T14:16:47.538Z,1.73
2022-10-17T14:19:25.856Z,2.35
2022-10-17T14:22:18.484Z,1.60
2022-10-17T14:24:46.170Z,1.85
2022-10-17T14:27:38.229Z,3.35
2022-10-17T14:30:51.795Z,3.08
2022-10-17T14:33:32.053Z,2.15
2022-10-17T14:36:01.638Z,2.85
2022-10-17T14:38:30.212Z,1.30
2022-10-17T14:41:30.279Z,1.10
2022-10-17T14:44:01.756Z,0.98
2022-10-17T14:46:29.525Z,3.17
2022-10-17T14:49:08.664Z,0.77
2022-10-17T14:51:50.258Z,2.72
2022-10-17T14:54:28.456Z,2.42
2022-10-17T14:56:56.136Z,1.83
2022-10-17T14:59:52.154Z,2.47
2022-10-17T15:02:13.981Z,1.88
2022-10-17T15:04:41.765Z,6.93
2022-10-17T15:07:14.726Z,2.38
2022-10-17T15:09:42.803Z,1.25
2022-10-17T15:12:22.801Z,1.70
2022-10-17T15:14:51.720Z,2.05
2022-10-17T15:17:23.884Z,1.52
2022-10-17T15:19:51.039Z,0.80
2022-10-17T15:22:18.439Z,1.20
2022-10-17T15:24:46.422Z,1.15
2022-10-17T15:27:21.655Z,1.25
2022-10-17T15:29:50.162Z,1.20
2022-10-17T15:35:37.159Z,1.40
2022-10-17T15:38:07.286Z,0.50
2022-10-17T15:40:34.512Z,0.50
2022-10-17T15:43:01.699Z,0.60
2022-10-17T15:45:29.037Z,2.53
2022-10-17T15:48:00.371Z,1.75
2022-10-17T15:50:30.681Z,1.10
2022-10-17T15:52:57.832Z,2.03
2022-10-17T15:55:25.265Z,1.92
2022-10-17T15:57:52.632Z,5.05
2022-10-17T16:00:23.470Z,2.38
2022-10-17T16:02:51.176Z,3.28
2022-10-17T16:05:25.745Z,3.08
2022-10-17T16:07:54.144Z,2.10
2022-10-17T16:10:22.704Z,1.50
2022-10-17T16:12:50.438Z,1.98
2022-10-17T16:15:28.171Z,3.13
2022-10-17T16:17:57.877Z,2.17
2022-10-17T16:20:25.981Z,1.45
2022-10-17T16:23:00.005Z,2.08
2022-10-17T16:25:29.599Z,1.95
2022-10-17T16:27:59.977Z,2.13
2022-10-17T16:30:31.352Z,1.98
2022-10-17T16:32:58.696Z,3.28
2022-10-17T16:35:33.142Z,2.05
2022-10-17T16:38:05.881Z,1.60
2022-10-17T16:40:33.641Z,1.48
2022-10-17T16:43:00.884Z,3.20
2022-10-17T16:45:28.661Z,1.35
2022-10-17T16:47:56.174Z,1.48
2022-10-17T16:50:24.559Z,1.10
2022-10-17T16:52:51.792Z,1.48
2022-10-17T16:55:19.468Z,2.08
2022-10-17T16:57:49.182Z,3.00
2022-10-17T17:00:18.171Z,1.90
2022-10-17T17:02:47.861Z,2.50
2022-10-17T17:05:15.408Z,2.38
2022-10-17T17:07:42.766Z,1.98
2022-10-17T17:10:10.410Z,2.88
2022-10-17T17:12:37.754Z,1.05
2022-10-17T17:15:08.388Z,1.88
2022-10-17T17:17:54.845Z,0.88
2022-10-17T17:20:22.897Z,1.63
2022-10-17T17:22:50.942Z,1.40
2022-10-17T17:25:18.072Z,1.55
2022-10-17T17:27:45.206Z,1.80
2022-10-17T17:30:12.558Z,1.30
2022-10-17T17:32:40.018Z,2.10
2022-10-17T17:35:07.364Z,1.10
2022-10-17T17:37:34.594Z,1.42
2022-10-17T17:40:01.900Z,1.52
2022-10-17T17:42:29.349Z,1.88
2022-10-17T17:44:56.511Z,2.05
2022-10-17T17:47:23.650Z,2.33
2022-10-17T17:49:50.727Z,1.60
2022-10-17T17:52:17.858Z,2.00
2022-10-17T17:54:44.987Z,1.40
2022-10-17T17:57:12.629Z,1.20
2022-10-17T17:59:41.322Z,4.25
2022-10-17T18:02:09.391Z,2.08
2022-10-17T18:04:36.631Z,2.72
2022-10-17T18:07:03.920Z,5.78
2022-10-17T18:09:31.056Z,2.33
2022-10-17T18:11:58.241Z,2.67
2022-10-17T18:14:25.669Z,4.30
2022-10-17T18:16:53.001Z,3.75
2022-10-17T18:19:20.388Z,4.05
2022-10-17T18:21:48.896Z,3.17
2022-10-17T18:24:16.147Z,4.95
2022-10-17T18:26:43.211Z,4.18
2022-10-17T18:29:12.818Z,3.53
2022-10-17T18:31:40.357Z,2.17
2022-10-17T18:34:08.379Z,3.78
2022-10-17T18:36:37.223Z,3.17
2022-10-17T18:39:05.231Z,2.90
2022-10-17T18:41:33.184Z,1.73
2022-10-17T18:44:00.826Z,1.50
2022-10-17T18:46:36.173Z,1.75
2022-10-17T18:49:03.890Z,2.10
2022-10-17T18:51:31.209Z,3.17
2022-10-17T18:54:02.517Z,3.83
2022-10-17T18:56:30.794Z,4.68
2022-10-17T18:58:58.222Z,4.07
2022-10-17T19:01:27.380Z,5.30
2022-10-17T19:03:57.454Z,2.38
2022-10-17T19:06:27.804Z,1.38
2022-10-17T19:08:54.991Z,1.70
2022-10-17T19:11:24.452Z,1.10
2022-10-17T19:13:52.466Z,1.30
2022-10-17T19:16:26.120Z,0.68
2022-10-17T19:18:56.529Z,0.60
2022-10-17T19:21:24.420Z,0.80
2022-10-17T19:23:54.384Z,0.90
2022-10-17T19:26:23.278Z,0.60
2022-10-17T19:28:53.584Z,1.70
2022-10-17T19:31:26.549Z,0.80
2022-10-17T19:33:55.870Z,0.93
2022-10-17T19:36:30.417Z,1.63
2022-10-17T19:39:02.137Z,0.45
2022-10-17T19:41:29.427Z,0.77
2022-10-17T19:43:56.996Z,0.57
2022-10-17T19:46:26.811Z,2.15
2022-10-17T19:48:54.004Z,1.08
2022-10-17T19:51:26.402Z,0.77
2022-10-17T19:53:56.096Z,1.20
2022-10-17T19:56:24.992Z,1.10
2022-10-17T19:58:54.192Z,0.68
2022-10-17T20:01:26.212Z,0.75
2022-10-17T20:03:56.011Z,0.45
2022-10-17T20:06:24.413Z,0.40
2022-10-17T20:08:52.139Z,0.40
2022-10-17T20:11:28.158Z,0.40
2022-10-17T20:13:56.582Z,0.52
2022-10-17T20:16:26.479Z,0.40
2022-10-17T20:18:56.630Z,0.95
2022-10-17T20:21:32.556Z,0.40
2022-10-17T20:24:00.995Z,0.47
2022-10-17T20:26:38.788Z,0.68
2022-10-17T20:29:13.331Z,0.38
2022-10-17T20:31:42.042Z,1.08
2022-10-17T20:34:12.782Z,0.30
2022-10-17T20:36:40.168Z,1.75
2022-10-17T20:39:07.710Z,0.35
2022-10-17T20:41:35.921Z,0.55
2022-10-17T20:44:03.500Z,0.65
2022-10-17T20:46:44.417Z,0.95
2022-10-17T20:49:16.261Z,0.30
2022-10-17T20:51:43.993Z,0.52
2022-10-17T20:54:11.941Z,0.77
2022-10-17T20:56:39.956Z,0.47
2022-10-17T20:59:16.466Z,0.55
2022-10-17T21:01:45.306Z,0.40
2022-10-17T21:04:44.319Z,0.85
2022-10-17T21:07:03.151Z,0.60
2022-10-17T21:09:30.531Z,0.38
2022-10-17T21:11:57.926Z,1.35
2022-10-17T21:14:25.567Z,0.50
2022-10-17T21:16:52.670Z,0.38
2022-10-17T21:19:44.754Z,0.38
2022-10-17T21:22:14.872Z,0.52
2022-10-17T21:24:42.040Z,0.40
2022-10-17T21:27:17.312Z,0.40
2022-10-17T21:29:44.979Z,0.40
2022-10-17T21:32:25.148Z,1.08
2022-10-17T21:34:59.869Z,0.40
2022-10-17T21:37:27.038Z,0.43
2022-10-17T21:39:54.202Z,0.50
2022-10-17T21:42:21.667Z,0.45
2022-10-17T21:44:50.218Z,0.40
2022-10-17T21:47:17.666Z,0.70
2022-10-17T21:49:45.345Z,0.40
2022-10-17T21:52:12.710Z,0.40
2022-10-17T21:54:44.354Z,0.43
2022-10-17T21:57:11.665Z,0.40
2022-10-17T21:59:38.945Z,0.55
2022-10-17T22:02:06.559Z,2.10
2022-10-17T22:04:33.789Z,0.43
2022-10-17T22:07:01.046Z,1.23
2022-10-17T22:09:31.502Z,1.65
2022-10-17T22:11:58.785Z,0.40
2022-10-17T22:14:29.054Z,1.35
2022-10-17T22:16:56.755Z,0.93
2022-10-17T22:19:26.558Z,0.40
2022-10-17T22:21:55.438Z,0.40
2022-10-17T22:24:23.445Z,1.08
2022-10-17T22:26:51.154Z,0.45
2022-10-17T22:29:18.932Z,0.80
2022-10-17T22:31:46.263Z,0.40
2022-10-17T22:34:15.882Z,0.35
2022-10-17T22:36:43.265Z,0.55
2022-10-17T22:39:11.059Z,0.47
2022-10-17T22:41:38.306Z,0.35
2022-10-17T22:44:06.026Z,1.15
2022-10-17T22:46:33.183Z,0.75
2022-10-17T22:49:00.423Z,0.80
2022-10-17T22:51:29.169Z,0.43
2022-10-17T22:57:18.840Z,0.30
2022-10-17T22:59:46.054Z,0.47
2022-10-17T23:02:13.221Z,6.65
2022-10-17T23:04:41.431Z,1.05
2022-10-17T23:07:14.090Z,0.93
2022-10-17T23:09:42.199Z,0.30
2022-10-17T23:12:10.029Z,0.47
2022-10-17T23:14:43.297Z,1.17
2022-10-17T23:17:12.095Z,0.30
2022-10-17T23:19:39.869Z,1.27
2022-10-17T23:22:08.124Z,0.35
2022-10-17T23:24:35.528Z,0.28
2022-10-17T23:27:03.474Z,0.30
2022-10-17T23:29:34.589Z,0.35
2022-10-17T23:32:02.093Z,0.50
2022-10-17T23:34:30.551Z,0.40
2022-10-17T23:36:57.823Z,0.38
2022-10-17T23:39:24.929Z,1.95
2022-10-17T23:41:52.037Z,3.78
2022-10-17T23:44:19.418Z,0.98
2022-10-17T23:46:46.834Z,0.70
2022-10-17T23:49:14.143Z,1.27
2022-10-17T23:51:41.288Z,1.75
2022-10-17T23:54:08.500Z,0.45
2022-10-17T23:56:35.662Z,1.33
2022-10-17T23:59:02.844Z,0.50
